createdAt,value
2022-09-07T00:01:47.847Z,55.48
2022-09-07T00:04:14.931Z,53.44
2022-09-07T00:06:41.869Z,51.38
2022-09-07T00:09:08.828Z,51.69
2022-09-07T00:11:35.825Z,52.16
2022-09-07T00:14:02.781Z,52.45
2022-09-07T00:16:31.018Z,52.42
2022-09-07T00:19:03.237Z,50.95
2022-09-07T00:21:30.899Z,54.32
2022-09-07T00:23:57.937Z,55.77
2022-09-07T00:26:30.339Z,54.76
2022-09-07T00:29:01.911Z,55.28
2022-09-07T00:31:30.223Z,56.59
2022-09-07T00:33:59.809Z,56.54
2022-09-07T00:36:27.231Z,55.41
2022-09-07T00:38:54.345Z,53.20
2022-09-07T00:41:22.395Z,53.71
2022-09-07T00:44:20.147Z,54.75
2022-09-07T00:46:47.243Z,55.46
2022-09-07T00:49:17.484Z,55.42
2022-09-07T00:51:50.543Z,53.39
2022-09-07T00:54:20.098Z,52.60
2022-09-07T00:56:47.625Z,53.38
2022-09-07T00:59:16.537Z,55.01
2022-09-07T01:01:43.945Z,53.34
2022-09-07T01:04:13.783Z,59.83
2022-09-07T01:06:42.633Z,57.75
2022-09-07T01:09:13.201Z,56.09
2022-09-07T01:11:41.096Z,56.16
2022-09-07T01:14:11.872Z,54.04
2022-09-07T01:17:20.622Z,55.95
2022-09-07T01:20:17.326Z,54.83
2022-09-07T01:23:22.027Z,54.67
2022-09-07T01:26:16.854Z,54.42
2022-09-07T01:28:47.526Z,54.20
2022-09-07T01:31:29.061Z,52.79
2022-09-07T01:34:21.917Z,53.75
2022-09-07T01:37:08.369Z,56.48
2022-09-07T01:40:08.264Z,56.34
2022-09-07T01:42:45.140Z,55.56
2022-09-07T01:45:14.496Z,54.51
2022-09-07T01:47:47.890Z,55.41
2022-09-07T01:50:21.950Z,52.84
2022-09-07T01:53:00.547Z,51.92
2022-09-07T01:55:43.779Z,52.16
2022-09-07T01:58:39.845Z,53.60
2022-09-07T02:01:33.386Z,54.26
2022-09-07T02:04:20.622Z,57.34
2022-09-07T02:06:57.001Z,55.68
2022-09-07T02:09:47.774Z,59.18
2022-09-07T02:12:19.301Z,59.28
2022-09-07T02:14:52.541Z,60.41
2022-09-07T02:17:39.761Z,64.25
2022-09-07T02:20:13.620Z,60.06
2022-09-07T02:22:44.477Z,56.73
2022-09-07T02:25:14.805Z,54.61
2022-09-07T02:27:46.000Z,54.50
2022-09-07T02:30:13.673Z,55.07
2022-09-07T02:32:40.695Z,55.95
2022-09-07T02:35:11.007Z,57.43
2022-09-07T02:37:39.120Z,57.62
2022-09-07T02:40:07.183Z,58.03
2022-09-07T02:42:34.857Z,58.17
2022-09-07T02:45:02.861Z,62.22
2022-09-07T02:48:03.441Z,62.56
2022-09-07T02:50:30.877Z,62.04
2022-09-07T02:53:03.708Z,60.77
2022-09-07T02:55:54.067Z,55.16
2022-09-07T02:58:46.734Z,52.49
2022-09-07T03:01:40.957Z,57.06
2022-09-07T03:04:37.259Z,60.21
2022-09-07T03:07:10.151Z,59.12
2022-09-07T03:09:42.488Z,61.06
2022-09-07T03:12:10.025Z,59.79
2022-09-07T03:14:40.197Z,57.67
2022-09-07T03:17:08.085Z,59.23
2022-09-07T03:19:35.036Z,57.99
2022-09-07T03:22:02.457Z,56.61
2022-09-07T03:24:29.688Z,58.32
2022-09-07T03:26:57.533Z,57.51
2022-09-07T03:29:24.511Z,58.34
2022-09-07T03:31:51.516Z,58.64
2022-09-07T03:34:25.659Z,58.72
2022-09-07T03:36:52.657Z,56.02
2022-09-07T03:39:22.811Z,58.37
2022-09-07T03:41:50.483Z,57.75
2022-09-07T03:44:18.434Z,56.17
2022-09-07T03:46:45.481Z,57.38
2022-09-07T03:49:12.403Z,58.28
2022-09-07T03:51:39.676Z,58.50
2022-09-07T03:54:39.593Z,59.00
2022-09-07T03:57:07.237Z,58.47
2022-09-07T03:59:34.371Z,57.37
2022-09-07T04:02:01.533Z,56.37
2022-09-07T04:07:58.715Z,56.19
2022-09-07T04:10:25.635Z,57.41
2022-09-07T04:12:52.536Z,57.55
2022-09-07T04:15:33.178Z,60.98
2022-09-07T04:18:00.964Z,58.93
2022-09-07T04:20:28.379Z,56.05
2022-09-07T04:22:55.274Z,51.97
2022-09-07T04:25:22.212Z,52.31
2022-09-07T04:27:49.188Z,54.98
2022-09-07T04:30:16.109Z,57.05
2022-09-07T04:32:43.056Z,57.52
2022-09-07T04:35:18.236Z,56.01
2022-09-07T04:37:45.461Z,57.16
2022-09-07T04:40:12.721Z,55.29
2022-09-07T04:42:39.679Z,54.22
2022-09-07T04:45:08.865Z,54.73
2022-09-07T04:47:35.807Z,53.79
2022-09-07T04:50:02.776Z,54.83
2022-09-07T04:52:29.745Z,56.54
2022-09-07T04:55:10.549Z,57.42
2022-09-07T04:57:37.659Z,56.32
2022-09-07T05:00:11.655Z,57.42
2022-09-07T05:02:38.845Z,57.72
2022-09-07T05:05:10.930Z,57.61
2022-09-07T05:07:37.877Z,57.32
2022-09-07T05:10:05.253Z,56.11
2022-09-07T05:12:32.173Z,54.87
2022-09-07T05:15:05.991Z,53.03
2022-09-07T05:17:33.019Z,53.39
2022-09-07T05:19:59.926Z,52.83
2022-09-07T05:22:27.003Z,51.28
2022-09-07T05:24:53.911Z,48.94
2022-09-07T05:27:20.848Z,45.82
2022-09-07T05:30:04.295Z,45.96
2022-09-07T05:32:32.514Z,42.77
2022-09-07T05:35:00.473Z,46.54
2022-09-07T05:37:27.367Z,46.43
2022-09-07T05:39:57.085Z,43.93
2022-09-07T05:42:24.176Z,40.30
2022-09-07T05:45:07.225Z,40.61
2022-09-07T05:47:34.383Z,39.38
2022-09-07T05:50:01.290Z,40.11
2022-09-07T05:52:28.969Z,39.44
2022-09-07T05:55:07.765Z,41.73
2022-09-07T05:57:40.301Z,39.32
2022-09-07T06:00:07.592Z,40.83
2022-09-07T06:02:39.087Z,42.12
2022-09-07T06:05:07.825Z,43.17
2022-09-07T06:07:34.781Z,44.31
2022-09-07T06:12:49.402Z,43.61
2022-09-07T06:15:21.504Z,43.80
2022-09-07T06:17:48.990Z,48.84
2022-09-07T06:20:16.282Z,49.46
2022-09-07T06:22:43.228Z,52.03
2022-09-07T06:25:10.173Z,55.81
2022-09-07T06:27:37.189Z,55.67
2022-09-07T06:30:04.878Z,53.64
2022-09-07T06:32:47.108Z,55.34
2022-09-07T06:35:15.123Z,55.59
2022-09-07T06:37:42.679Z,56.88
2022-09-07T06:40:11.107Z,62.37
2022-09-07T06:42:38.885Z,59.49
2022-09-07T06:45:06.389Z,59.26
2022-09-07T06:47:33.380Z,57.39
2022-09-07T06:50:00.666Z,61.96
2022-09-07T06:52:28.229Z,61.07
2022-09-07T06:57:25.185Z,55.89
2022-09-07T06:59:52.130Z,56.55
2022-09-07T07:02:19.115Z,53.60
2022-09-07T07:04:46.865Z,54.20
2022-09-07T07:07:14.488Z,57.25
2022-09-07T07:09:42.085Z,55.35
2022-09-07T07:12:10.208Z,55.83
2022-09-07T07:14:39.725Z,53.29
2022-09-07T07:17:08.637Z,53.33
2022-09-07T07:19:35.581Z,53.27
2022-09-07T07:22:14.515Z,54.97
2022-09-07T07:24:49.450Z,53.43
2022-09-07T07:27:16.786Z,50.79
2022-09-07T07:29:43.776Z,52.90
2022-09-07T07:32:10.686Z,55.42
2022-09-07T07:34:37.804Z,55.50
2022-09-07T07:37:04.770Z,53.30
2022-09-07T07:42:18.661Z,50.74
2022-09-07T07:44:45.603Z,48.53
2022-09-07T07:47:12.529Z,45.65
2022-09-07T07:49:39.441Z,48.81
2022-09-07T07:54:55.512Z,47.57
2022-09-07T07:57:22.407Z,46.24
2022-09-07T07:59:49.694Z,46.61
2022-09-07T08:02:17.536Z,49.18
2022-09-07T08:04:44.807Z,48.48
2022-09-07T08:07:12.316Z,44.64
2022-09-07T08:09:44.538Z,46.07
2022-09-07T08:12:15.099Z,46.20
2022-09-07T08:14:42.128Z,44.90
2022-09-07T08:17:13.370Z,47.92
2022-09-07T08:19:40.644Z,44.07
2022-09-07T08:22:08.908Z,43.83
2022-09-07T08:24:35.825Z,45.03
2022-09-07T08:27:02.745Z,46.28
2022-09-07T08:29:33.580Z,46.20
2022-09-07T08:32:02.178Z,45.40
2022-09-07T08:34:29.101Z,47.48
2022-09-07T08:36:56.010Z,44.53
2022-09-07T08:39:22.841Z,43.49
2022-09-07T08:42:11.301Z,41.91
2022-09-07T08:45:01.083Z,40.07
2022-09-07T08:47:51.822Z,39.48
2022-09-07T08:50:37.637Z,38.50
2022-09-07T08:53:14.706Z,38.33
2022-09-07T08:55:49.741Z,36.67
2022-09-07T08:58:48.071Z,36.08
2022-09-07T09:01:32.866Z,37.32
2022-09-07T09:06:11.581Z,34.08
2022-09-07T09:07:09.323Z,32.15
2022-09-07T09:10:03.857Z,32.64
2022-09-07T09:12:56.782Z,33.69
2022-09-07T09:15:23.735Z,34.56
2022-09-07T09:18:05.440Z,33.72
2022-09-07T09:20:40.670Z,33.34
2022-09-07T09:23:12.906Z,33.24
2022-09-07T09:25:57.770Z,32.21
2022-09-07T09:28:26.591Z,34.17
2022-09-07T09:30:55.918Z,33.03
2022-09-07T09:33:28.016Z,34.44
2022-09-07T09:36:00.386Z,31.73
2022-09-07T09:38:43.697Z,31.48
2022-09-07T09:41:12.380Z,32.92
2022-09-07T09:43:52.507Z,31.46
2022-09-07T09:46:32.700Z,31.70
2022-09-07T09:49:06.508Z,33.69
2022-09-07T09:54:25.601Z,30.46
2022-09-07T09:56:52.981Z,31.54
2022-09-07T10:05:30.823Z,31.27
2022-09-07T10:07:58.282Z,31.64
2022-09-07T10:10:27.536Z,29.55
2022-09-07T10:12:55.364Z,31.24
2022-09-07T10:15:40.113Z,32.25
2022-09-07T10:18:18.950Z,31.55
2022-09-07T10:20:45.803Z,31.14
2022-09-07T10:23:30.507Z,32.17
2022-09-07T10:25:57.352Z,33.50
2022-09-07T10:28:24.895Z,31.13
2022-09-07T10:31:15.321Z,31.50
2022-09-07T10:34:26.120Z,30.25
2022-09-07T10:37:14.144Z,30.25
2022-09-07T10:39:43.328Z,30.27
2022-09-07T10:42:10.246Z,29.27
2022-09-07T10:45:13.004Z,29.31
2022-09-07T10:47:50.521Z,31.59
2022-09-07T10:50:25.559Z,31.04
2022-09-07T10:53:41.939Z,28.35
2022-09-07T10:56:26.580Z,28.51
2022-09-07T10:59:23.269Z,28.00
2022-09-07T11:01:59.697Z,26.54
2022-09-07T11:05:23.847Z,25.66
2022-09-07T11:08:18.487Z,26.12
2022-09-07T11:11:06.068Z,24.89
2022-09-07T11:13:55.477Z,26.42
2022-09-07T11:22:16.335Z,26.63
2022-09-07T11:27:43.885Z,25.82
2022-09-07T11:30:18.970Z,25.21
2022-09-07T11:32:59.085Z,25.37
2022-09-07T11:35:37.865Z,25.34
2022-09-07T11:38:20.829Z,26.87
2022-09-07T11:40:57.818Z,27.31
2022-09-07T11:43:33.167Z,26.81
2022-09-07T11:46:08.067Z,25.80
2022-09-07T11:48:56.567Z,25.24
2022-09-07T11:51:56.583Z,26.84
2022-09-07T11:54:38.813Z,28.21
2022-09-07T11:57:37.320Z,28.08
2022-09-07T12:00:14.824Z,28.73
2022-09-07T12:03:17.222Z,27.88
2022-09-07T12:06:22.663Z,28.47
2022-09-07T12:09:09.291Z,27.62
2022-09-07T12:11:54.699Z,28.48
2022-09-07T12:14:21.552Z,27.44
2022-09-07T12:17:00.562Z,28.85
2022-09-07T12:19:28.303Z,28.94
2022-09-07T12:21:59.868Z,27.74
2022-09-07T12:24:38.298Z,27.53
2022-09-07T12:27:22.076Z,27.48
2022-09-07T12:29:50.608Z,28.56
2022-09-07T12:32:57.135Z,28.86
2022-09-07T12:35:33.943Z,29.16
2022-09-07T12:38:06.856Z,28.14
2022-09-07T12:40:37.415Z,28.66
2022-09-07T12:43:13.423Z,28.39
2022-09-07T12:45:48.256Z,26.81
2022-09-07T12:48:15.127Z,26.73
2022-09-07T12:50:57.077Z,27.53
2022-09-07T12:53:56.977Z,27.13
2022-09-07T12:56:47.439Z,25.86
2022-09-07T12:59:42.905Z,26.19
2022-09-07T13:02:09.805Z,27.10
2022-09-07T13:04:57.987Z,26.41
2022-09-07T13:07:46.798Z,26.25
2022-09-07T13:10:34.390Z,24.59
2022-09-07T13:13:04.227Z,25.43
2022-09-07T13:15:45.298Z,26.93
2022-09-07T13:18:35.395Z,26.65
2022-09-07T13:21:08.363Z,25.76
2022-09-07T13:23:37.871Z,25.33
2022-09-07T13:26:08.054Z,25.96
2022-09-07T13:28:56.299Z,26.73
2022-09-07T13:31:48.590Z,27.37
2022-09-07T13:34:36.188Z,28.63
2022-09-07T13:37:05.551Z,28.83
2022-09-07T13:39:44.645Z,27.31
2022-09-07T13:42:21.932Z,27.91
2022-09-07T13:44:57.495Z,26.00
2022-09-07T13:48:14.055Z,26.95
2022-09-07T13:50:55.197Z,27.10
2022-09-07T13:53:55.443Z,27.04
2022-09-07T13:56:35.225Z,27.76
2022-09-07T13:59:17.174Z,28.49
2022-09-07T14:01:47.364Z,28.58
2022-09-07T14:04:31.057Z,29.00
2022-09-07T14:07:13.829Z,27.17
2022-09-07T14:09:41.274Z,26.54
2022-09-07T14:12:22.080Z,28.97
2022-09-07T14:15:28.890Z,29.98
2022-09-07T14:18:04.374Z,29.50
2022-09-07T14:20:32.665Z,29.75
2022-09-07T14:22:59.955Z,28.90
2022-09-07T14:25:27.206Z,29.59
2022-09-07T14:27:54.629Z,30.34
2022-09-07T14:30:33.447Z,28.67
2022-09-07T14:33:13.914Z,29.12
2022-09-07T14:35:41.755Z,28.79
2022-09-07T14:41:15.132Z,30.51
2022-09-07T14:43:55.238Z,30.28
2022-09-07T14:46:26.134Z,29.56
2022-09-07T14:48:57.814Z,28.65
2022-09-07T14:51:36.073Z,29.37
2022-09-07T14:54:30.253Z,30.07
2022-09-07T14:57:03.794Z,30.18
2022-09-07T14:59:47.379Z,30.57
2022-09-07T15:02:26.523Z,29.90
2022-09-07T15:05:14.992Z,29.92
2022-09-07T15:07:50.672Z,30.08
2022-09-07T15:10:23.870Z,31.61
2022-09-07T15:12:55.961Z,30.70
2022-09-07T15:15:29.845Z,31.75
2022-09-07T15:18:05.825Z,32.66
2022-09-07T15:20:37.186Z,31.68
2022-09-07T15:23:06.383Z,31.62
2022-09-07T15:25:33.376Z,31.66
2022-09-07T15:28:00.254Z,31.52
2022-09-07T15:30:27.517Z,31.80
2022-09-07T15:32:56.869Z,31.26
2022-09-07T15:35:24.211Z,31.40
2022-09-07T15:38:59.466Z,32.03
2022-09-07T15:41:03.794Z,31.40
2022-09-07T15:43:29.684Z,31.64
2022-09-07T15:45:56.737Z,30.95
2022-09-07T15:48:27.387Z,30.10
2022-09-07T15:51:02.512Z,29.44
2022-09-07T15:56:17.246Z,30.54
2022-09-07T15:58:46.884Z,30.73
2022-09-07T16:04:01.659Z,30.51
2022-09-07T16:06:31.517Z,31.58
2022-09-07T16:08:58.436Z,30.68
2022-09-07T16:11:26.932Z,30.44
2022-09-07T16:14:01.803Z,29.62
2022-09-07T16:19:20.638Z,29.95
2022-09-07T16:21:47.863Z,30.51
2022-09-07T16:24:14.751Z,30.15
2022-09-07T16:26:41.643Z,30.89
2022-09-07T16:29:08.523Z,31.86
2022-09-07T16:31:35.664Z,32.42
2022-09-07T16:34:03.868Z,35.80
2022-09-07T16:36:30.799Z,37.30
2022-09-07T16:38:59.870Z,36.59
2022-09-07T16:41:29.430Z,36.12
2022-09-07T16:43:56.610Z,36.31
2022-09-07T16:46:27.178Z,36.21
2022-09-07T16:48:54.751Z,37.07
2022-09-07T16:51:23.095Z,37.03
2022-09-07T16:53:51.879Z,37.29
2022-09-07T16:56:21.128Z,37.68
2022-09-07T16:58:51.262Z,37.30
2022-09-07T17:01:20.545Z,37.05
2022-09-07T17:03:49.718Z,36.66
2022-09-07T17:06:18.024Z,36.88
2022-09-07T17:08:45.244Z,35.92
2022-09-07T17:11:15.937Z,36.02
2022-09-07T17:13:43.690Z,34.69
2022-09-07T17:16:16.042Z,35.36
2022-09-07T17:21:33.252Z,36.08
2022-09-07T17:24:08.536Z,37.71
2022-09-07T17:26:35.526Z,36.22
2022-09-07T17:29:02.666Z,36.57
2022-09-07T17:34:21.159Z,36.18
2022-09-07T17:36:48.268Z,36.11
2022-09-07T17:39:17.795Z,34.57
2022-09-07T17:41:46.111Z,35.38
2022-09-07T17:44:15.243Z,35.65
2022-09-07T17:46:42.173Z,36.10
2022-09-07T17:49:12.436Z,36.24
2022-09-07T17:51:39.917Z,36.02
2022-09-07T17:54:11.659Z,36.42
2022-09-07T17:56:39.655Z,36.48
2022-09-07T18:01:56.240Z,34.71
2022-09-07T18:04:30.144Z,34.56
2022-09-07T18:06:57.039Z,36.48
2022-09-07T18:09:24.231Z,36.99
2022-09-07T18:11:51.276Z,37.64
2022-09-07T18:14:19.019Z,38.62
2022-09-07T18:16:48.812Z,39.31
2022-09-07T18:19:15.987Z,37.42
2022-09-07T18:21:43.751Z,39.50
2022-09-07T18:24:18.680Z,39.06
2022-09-07T18:26:50.600Z,39.62
2022-09-07T18:29:36.862Z,40.73
2022-09-07T18:32:08.687Z,42.85
2022-09-07T18:34:36.963Z,43.87
2022-09-07T18:37:04.755Z,44.85
2022-09-07T18:39:32.537Z,43.20
2022-09-07T18:41:59.484Z,41.33
2022-09-07T18:47:22.246Z,42.57
2022-09-07T18:49:51.567Z,42.81
2022-09-07T18:55:16.703Z,41.99
2022-09-07T18:57:43.619Z,41.20
2022-09-07T19:00:11.851Z,40.28
2022-09-07T19:02:38.949Z,39.13
2022-09-07T19:08:02.771Z,39.24
2022-09-07T19:10:34.207Z,40.71
2022-09-07T19:13:01.060Z,39.61
2022-09-07T19:15:37.339Z,40.33
2022-09-07T19:18:05.858Z,39.08
2022-09-07T19:20:34.064Z,39.87
2022-09-07T19:23:00.955Z,40.42
2022-09-07T19:25:27.800Z,39.87
2022-09-07T19:27:54.862Z,40.61
2022-09-07T19:30:21.722Z,40.45
2022-09-07T19:32:48.586Z,40.74
2022-09-07T19:35:28.885Z,43.04
2022-09-07T19:37:56.029Z,43.11
2022-09-07T19:40:22.917Z,44.06
2022-09-07T19:42:49.821Z,45.32
2022-09-07T19:45:17.738Z,46.99
2022-09-07T19:47:45.013Z,48.02
2022-09-07T19:50:11.883Z,48.20
2022-09-07T19:52:38.995Z,43.86
2022-09-07T19:55:11.856Z,43.82
2022-09-07T19:57:38.721Z,47.01
2022-09-07T20:00:06.340Z,45.48
2022-09-07T20:02:33.466Z,47.25
2022-09-07T20:05:00.334Z,46.26
2022-09-07T20:07:27.235Z,44.70
2022-09-07T20:09:54.168Z,45.86
2022-09-07T20:12:21.008Z,45.15
2022-09-07T20:14:50.810Z,46.84
2022-09-07T20:17:17.709Z,46.01
2022-09-07T20:19:44.568Z,45.80
2022-09-07T20:22:11.400Z,45.97
2022-09-07T20:24:38.902Z,51.31
2022-09-07T20:27:05.815Z,48.26
2022-09-07T20:29:32.715Z,46.72
2022-09-07T20:32:00.558Z,47.75
2022-09-07T20:34:28.635Z,48.70
2022-09-07T20:36:56.772Z,52.30
2022-09-07T20:39:23.805Z,50.54
2022-09-07T20:41:50.849Z,49.52
2022-09-07T20:44:29.809Z,48.14
2022-09-07T20:46:56.698Z,48.32
2022-09-07T20:49:23.613Z,50.40
2022-09-07T20:51:50.858Z,50.47
2022-09-07T20:54:18.845Z,49.45
2022-09-07T20:56:45.698Z,52.17
2022-09-07T20:59:12.534Z,52.08
2022-09-07T21:01:39.531Z,52.27
2022-09-07T21:04:08.467Z,52.95
2022-09-07T21:06:35.460Z,49.48
2022-09-07T21:09:02.368Z,49.03
2022-09-07T21:11:34.451Z,49.16
2022-09-07T21:14:07.464Z,48.50
2022-09-07T21:16:35.616Z,48.94
2022-09-07T21:19:04.133Z,47.99
2022-09-07T21:21:38.701Z,45.52
2022-09-07T21:24:07.112Z,45.91
2022-09-07T21:26:34.027Z,44.66
2022-09-07T21:29:03.946Z,45.84
2022-09-07T21:31:32.641Z,46.50
2022-09-07T21:34:01.386Z,44.87
2022-09-07T21:36:28.602Z,44.24
2022-09-07T21:38:56.004Z,44.97
2022-09-07T21:41:24.790Z,44.55
2022-09-07T21:44:00.799Z,45.98
2022-09-07T21:46:29.276Z,45.34
2022-09-07T21:48:57.514Z,46.15
2022-09-07T21:51:25.646Z,45.11
2022-09-07T21:53:56.117Z,46.52
2022-09-07T21:56:23.481Z,47.92
2022-09-07T21:58:55.375Z,47.76
2022-09-07T22:01:23.299Z,47.82
2022-09-07T22:04:04.642Z,45.19
2022-09-07T22:06:32.587Z,46.60
2022-09-07T22:09:00.209Z,48.92
2022-09-07T22:11:28.383Z,48.55
2022-09-07T22:13:58.386Z,46.10
2022-09-07T22:16:25.607Z,49.01
2022-09-07T22:18:52.683Z,48.61
2022-09-07T22:21:27.021Z,47.34
2022-09-07T22:24:00.804Z,49.32
2022-09-07T22:26:29.684Z,48.29
2022-09-07T22:28:56.843Z,50.03
2022-09-07T22:31:31.977Z,48.35
2022-09-07T22:34:06.339Z,48.71
2022-09-07T22:36:38.675Z,49.78
2022-09-07T22:39:08.976Z,50.87
2022-09-07T22:41:38.341Z,51.36
2022-09-07T22:44:08.410Z,51.59
2022-09-07T22:46:37.411Z,52.40
2022-09-07T22:49:05.845Z,53.13
2022-09-07T22:51:32.951Z,53.68
2022-09-07T22:54:00.951Z,54.50
2022-09-07T22:56:32.570Z,53.47
2022-09-07T22:59:02.082Z,54.19
2022-09-07T23:01:30.160Z,53.61
2022-09-07T23:04:00.777Z,52.81
2022-09-07T23:06:34.052Z,52.51
2022-09-07T23:09:04.226Z,53.04
2022-09-07T23:11:31.110Z,52.94
2022-09-07T23:14:00.588Z,53.69
2022-09-07T23:16:28.292Z,54.21
2022-09-07T23:18:56.404Z,53.49
2022-09-07T23:21:23.317Z,51.31
2022-09-07T23:24:01.519Z,50.56
2022-09-07T23:26:30.617Z,52.51
2022-09-07T23:29:02.516Z,55.09
2022-09-07T23:31:31.112Z,53.11
2022-09-07T23:34:04.308Z,52.38
2022-09-07T23:36:31.231Z,48.86
2022-09-07T23:38:59.738Z,50.02
2022-09-07T23:41:27.134Z,51.06
2022-09-07T23:43:57.371Z,51.60
2022-09-07T23:46:24.666Z,51.86
2022-09-07T23:48:51.891Z,55.76
2022-09-07T23:51:23.535Z,53.44
2022-09-07T23:53:51.271Z,49.72
2022-09-07T23:56:18.133Z,51.81
2022-09-07T23:58:45.231Z,52.01
